Atlantic Beach, South Carolina
Current Conditions -  °F | °C
As of 12:53 AM on Sunday 23 Nov 2014 (Local Time) from KCRE Reporting Station
Haze Haze  
Wind Chill: 45°   Ceiling: Unl
Heat Index: 48°   Visibility: 6mi
Dew Point: 47°   Wind: 6mph
Humidity: 96%   Direction: 40°NE
Pressure: 30.26"   Gusts: NA
Location:  33.8371°N, 78.6471°W
Report Text: KCRE 230553Z AUTO 04005KT 6SM BR CLR 09/08 A3026 RMK AO1 SLP249 T00890083 10117 20083 58022
Loading
Personal Weather Stations






























Interactive Weather Map New forecast layout! Learn more

10-Day Weather Forecast

Advertisements
Track Severe Weather on mobile